Tsm Penzer — FIZR — position and weather

sailwx.info

Track history (hours):
 
Tides and Currents Weather Stations Pressure Air Temp Water Temp Dewpoint Dewpoint Depression Visibility Wind Speed Wind Dir Waves Ship Positions

Tsm Penzer

Last reported at 2017-Sep-21 18:02 UTC. Time now 2017-Sep-24 10:42 UTC.
Position N 48°23' W 004°29'.

Length 28 m; draft 1 m.

Type: Other ship. MMSI: 228076900.

Date/timePositionNaut miles runAvg speedWind from/ knotsBaromVisibWave heightAir tempDewpointWater temp
2017-Sep-21 18:02N 48°23' W 004°29'0 0.1
2017-Sep-21 18:00N 48°23' W 004°29'0 0.0
2017-Sep-21 17:31N 48°23' W 004°29'0 0.0
2017-Sep-21 17:00N 48°23' W 004°29'0 0.0
2017-Sep-21 16:30N 48°23' W 004°29'0 0.0
2017-Sep-21 16:00N 48°23' W 004°29'0 0.0
2017-Sep-21 15:31N 48°23' W 004°29'0 0.0
2017-Sep-21 15:00N 48°23' W 004°29'0 0.0
2017-Sep-21 14:30N 48°23' W 004°29'0 0.0
2017-Sep-21 14:01N 48°23' W 004°29'0 0.0
2017-Sep-21 13:30N 48°23' W 004°29'0 0.0
2017-Sep-21 13:00N 48°23' W 004°29'0 0.0
2017-Sep-21 12:30N 48°23' W 004°29'0 0.0
2017-Sep-21 12:00N 48°23' W 004°29'0 0.0
2017-Sep-21 11:30N 48°23' W 004°29'0 0.0
2017-Sep-21 11:00N 48°23' W 004°29'0 0.0
2017-Sep-21 10:30N 48°23' W 004°29'0 0.0
2017-Sep-21 10:01N 48°23' W 004°29'0 0.0
2017-Sep-21 09:30N 48°23' W 004°29'0 0.0
2017-Sep-21 09:00N 48°23' W 004°29'0 0.0
2017-Sep-21 08:30N 48°23' W 004°29'0 0.0
2017-Sep-21 08:00N 48°23' W 004°29'0 0.0
2017-Sep-21 07:30N 48°23' W 004°29'0 0.0
2017-Sep-21 07:00N 48°23' W 004°29'0 0.0
2017-Sep-21 06:30N 48°23' W 004°29'0 0.0
2017-Sep-21 06:00N 48°23' W 004°29'0 0.0
2017-Sep-21 05:30N 48°23' W 004°29'0 0.0
2017-Sep-21 05:00N 48°23' W 004°29'0 0.0
2017-Sep-21 04:31N 48°23' W 004°29'0 0.0
2017-Sep-21 04:00N 48°23' W 004°29'0 0.0
2017-Sep-21 03:30N 48°23' W 004°29'0 0.0
2017-Sep-21 03:01N 48°23' W 004°29'0 0.0
2017-Sep-21 02:30N 48°23' W 004°29'0 0.0
2017-Sep-21 02:00N 48°23' W 004°29'0 0.0
2017-Sep-21 01:30N 48°23' W 004°29'0 0.0
2017-Sep-21 01:01N 48°23' W 004°29'0 0.0
2017-Sep-21 00:30N 48°23' W 004°29'0 0.0
2017-Sep-21 00:00N 48°23' W 004°29'0 0.0
2017-Sep-20 23:30N 48°23' W 004°29'0 0.0
2017-Sep-20 23:01N 48°23' W 004°29'0 0.0
2017-Sep-20 22:30N 48°23' W 004°29'0 0.0
2017-Sep-20 22:00N 48°23' W 004°29'0 0.0
2017-Sep-20 21:30N 48°23' W 004°29'0 0.0
2017-Sep-20 21:00N 48°23' W 004°29'4 7.2
2017-Sep-20 20:30N 48°21' W 004°33'510.5
2017-Sep-20 20:01N 48°17' W 004°38'611.0
2017-Sep-20 19:30N 48°12' W 004°41'510.7
2017-Sep-20 19:00N 48°07' W 004°44'4 8.8
2017-Sep-20 18:30N 48°02' W 004°46'5 9.7
2017-Sep-20 18:00N 47°59' W 004°41'510.0
2017-Sep-20 17:29N 47°55' W 004°36'510.1
2017-Sep-20 17:00N 47°52' W 004°30'610.0
2017-Sep-20 16:26N 47°48' W 004°24'4 9.8
2017-Sep-20 16:00N 47°45' W 004°19'610.3
2017-Sep-20 15:28N 47°45' W 004°11'510.6
2017-Sep-20 15:00N 47°45' W 004°04'1110.6
2017-Sep-20 14:00N 47°44' W 003°48'511.1
2017-Sep-20 13:30N 47°43' W 003°40'510.8
2017-Sep-20 13:01N 47°42' W 003°32'510.6
2017-Sep-20 12:30N 47°41' W 003°24'3 5.4
2017-Sep-20 12:00N 47°44' W 003°22'3 6.6
2017-Sep-20 11:30N 47°41' W 003°23'611.3
2017-Sep-20 11:00N 47°35' W 003°26'510.8
2017-Sep-20 10:30N 47°31' W 003°30'2 5.0
2017-Sep-20 10:01N 47°29' W 003°33'2 4.5
2017-Sep-20 09:30N 47°31' W 003°30'3 5.3
2017-Sep-20 09:01N 47°33' W 003°28'3 5.2
2017-Sep-20 08:31N 47°35' W 003°26'3 5.7
2017-Sep-20 08:00N 47°37' W 003°24'3 5.2
2017-Sep-20 07:30N 47°40' W 003°23'3 6.0
2017-Sep-20 07:00N 47°43' W 003°22'1 1.9
2017-Sep-20 06:30N 47°44' W 003°22'0 0.0
2017-Sep-20 06:00N 47°44' W 003°22'0 0.0
2017-Sep-20 05:30N 47°44' W 003°22'0 0.0
2017-Sep-20 05:00N 47°44' W 003°22'2 4.6
2017-Sep-20 04:30N 47°42' W 003°23'510.4
2017-Sep-20 04:00N 47°41' W 003°31'510.7
2017-Sep-20 03:30N 47°42' W 003°38'610.7
2017-Sep-20 02:59N 47°43' W 003°47'510.8
2017-Sep-20 02:30N 47°44' W 003°54'611.1
2017-Sep-20 02:00N 47°45' W 004°02'610.9
2017-Sep-20 01:28N 47°45' W 004°11'510.8
2017-Sep-20 01:00N 47°45' W 004°18'610.2
2017-Sep-20 00:28N 47°47' W 004°26'510.4
2017-Sep-19 23:59N 47°51' W 004°31'510.2
2017-Sep-19 23:30N 47°54' W 004°36'5 9.8
2017-Sep-19 23:00N 47°58' W 004°41'4 8.6
2017-Sep-19 22:31N 48°01' W 004°45'3 6.4
2017-Sep-19 22:01N 48°04' W 004°45'510.5
2017-Sep-19 21:30N 48°09' W 004°43'510.7
2017-Sep-19 21:00N 48°14' W 004°39'510.2
2017-Sep-19 20:30N 48°19' W 004°36'510.8
2017-Sep-19 20:00N 48°22' W 004°29'1 2.0
2017-Sep-19 19:30N 48°23' W 004°29'0 0.0
2017-Sep-19 19:00N 48°23' W 004°29'0 0.0
2017-Sep-19 18:30N 48°23' W 004°29'0 0.0
2017-Sep-19 18:00N 48°23' W 004°29'0 0.0
2017-Sep-19 17:30N 48°23' W 004°29'0 0.0
2017-Sep-19 17:00N 48°23' W 004°29'0 0.0
2017-Sep-19 16:30N 48°23' W 004°29'0 0.0
2017-Sep-19 16:01N 48°23' W 004°29'0 0.0
2017-Sep-19 15:30N 48°23' W 004°29'0 0.0
2017-Sep-19 15:00N 48°23' W 004°29'0 0.0
2017-Sep-19 14:30N 48°23' W 004°29'0 0.0
2017-Sep-19 14:00N 48°23' W 004°29'0 0.0
2017-Sep-19 13:30N 48°23' W 004°29'0 0.0
2017-Sep-19 13:00N 48°23' W 004°29'0 0.0
2017-Sep-19 12:30N 48°23' W 004°29'0 0.0
2017-Sep-19 12:00N 48°23' W 004°29'0 0.0
2017-Sep-19 11:31N 48°23' W 004°29'0 0.0
2017-Sep-19 11:01N 48°23' W 004°29'0 0.0
2017-Sep-19 10:31N 48°23' W 004°29'0 0.0
2017-Sep-19 10:00N 48°23' W 004°29'0 0.0
2017-Sep-19 09:30N 48°23' W 004°29'0 0.0
2017-Sep-19 09:01N 48°23' W 004°29'0 0.0
2017-Sep-19 08:30N 48°23' W 004°29'0 0.0
2017-Sep-19 08:01N 48°23' W 004°29'0 0.0
2017-Sep-19 07:30N 48°23' W 004°29'0 0.0
2017-Sep-19 07:00N 48°23' W 004°29'0 0.0
2017-Sep-19 06:30N 48°23' W 004°29'0 0.0
2017-Sep-19 06:00N 48°23' W 004°29'0 0.0
2017-Sep-19 05:30N 48°23' W 004°29'0 0.0
2017-Sep-19 05:01N 48°23' W 004°29'0 0.0
2017-Sep-19 04:30N 48°23' W 004°29'0 0.0
2017-Sep-19 04:00N 48°23' W 004°29'0 0.0
2017-Sep-19 03:30N 48°23' W 004°29'0 0.0
2017-Sep-19 03:01N 48°23' W 004°29'0 0.0
2017-Sep-19 02:30N 48°23' W 004°29'0 0.0
2017-Sep-19 02:01N 48°23' W 004°29'0 0.0
2017-Sep-19 01:30N 48°23' W 004°29'0 0.0
2017-Sep-19 01:00N 48°23' W 004°29'0 0.4
2017-Sep-19 00:30N 48°23' W 004°29'612.5
2017-Sep-19 00:00N 48°19' W 004°36'611.6
2017-Sep-18 23:31N 48°13' W 004°40'611.6
2017-Sep-18 23:00N 48°08' W 004°43'612.4
2017-Sep-18 22:30N 48°02' W 004°46'712.8
2017-Sep-18 22:00N 47°57' W 004°39'1211.4
2017-Sep-18 20:58N 47°49' W 004°28'1111.2
2017-Sep-18 19:58N 47°42' W 004°14'1411.3
2017-Sep-18 18:46N 47°36' W 003°56'311.2
2017-Sep-18 18:30N 47°35' W 003°52'511.2
2017-Sep-18 18:00N 47°33' W 003°44'511.0
2017-Sep-18 17:30N 47°31' W 003°36'4 9.0
2017-Sep-18 17:00N 47°30' W 003°30'2 3.4
2017-Sep-18 16:30N 47°29' W 003°28'1 2.2
2017-Sep-18 16:00N 47°28' W 003°28'1 1.4
2017-Sep-18 15:30N 47°28' W 003°27'0 0.3
2017-Sep-18 15:00N 47°28' W 003°27'1 1.9
2017-Sep-18 14:30N 47°29' W 003°27'2 3.2
2017-Sep-18 14:01N 47°30' W 003°26'1 1.5
2017-Sep-18 13:30N 47°31' W 003°27'0 0.3
2017-Sep-18 13:00N 47°31' W 003°28'0 0.4
2017-Sep-18 12:31N 47°31' W 003°28'0 1.0
2017-Sep-18 12:01N 47°31' W 003°27'0 0.0
2017-Sep-18 11:30N 47°31' W 003°27'1 1.1
2017-Sep-18 11:00N 47°31' W 003°26'0 0.1
2017-Sep-18 10:30N 47°31' W 003°26'0 0.0
2017-Sep-18 10:00N 47°31' W 003°26'1 1.2
2017-Sep-18 09:30N 47°31' W 003°25'0 0.4
2017-Sep-18 09:00N 47°31' W 003°25'1 1.2
2017-Sep-18 08:30N 47°31' W 003°24'1 1.4
2017-Sep-18 08:01N 47°32' W 003°23'0 0.1
2017-Sep-18 07:30N 47°32' W 003°23'1 1.9
2017-Sep-18 07:00N 47°33' W 003°23'0 0.1
2017-Sep-18 06:30N 47°33' W 003°22'0 0.1
2017-Sep-18 06:00N 47°33' W 003°22'0 0.2
2017-Sep-18 05:30N 47°33' W 003°22'2 4.5
2017-Sep-18 05:00N 47°35' W 003°23'3 6.3
2017-Sep-18 04:30N 47°38' W 003°25'0 0.0
2017-Sep-18 04:00N 47°38' W 003°25'0 0.0
2017-Sep-18 03:30N 47°38' W 003°25'0 0.0
2017-Sep-18 03:00N 47°38' W 003°25'0 0.0
2017-Sep-18 02:30N 47°38' W 003°25'0 0.0
2017-Sep-18 02:00N 47°38' W 003°25'0 0.0
2017-Sep-18 01:30N 47°38' W 003°25'0 0.0
2017-Sep-18 01:00N 47°38' W 003°25'0 0.0
2017-Sep-18 00:30N 47°38' W 003°25'0 0.0
2017-Sep-18 00:00N 47°38' W 003°25'0 0.0
2017-Sep-17 23:30N 47°38' W 003°25'0 0.0
2017-Sep-17 23:00N 47°38' W 003°25'0 0.0
2017-Sep-17 22:30N 47°38' W 003°25'0 0.0
2017-Sep-17 22:00N 47°38' W 003°25'0 0.0
2017-Sep-17 21:30N 47°38' W 003°25'0 0.0
2017-Sep-17 21:00N 47°38' W 003°25'0 0.0
2017-Sep-17 20:30N 47°38' W 003°25'0 0.0
2017-Sep-17 20:00N 47°38' W 003°25'0 0.0
2017-Sep-17 19:30N 47°38' W 003°25'0 0.0
2017-Sep-17 19:00N 47°38' W 003°25'0 0.0
2017-Sep-17 18:30N 47°38' W 003°25'0 0.0
2017-Sep-17 18:00N 47°38' W 003°25'3 5.6
2017-Sep-17 17:30N 47°35' W 003°23'3 5.3
2017-Sep-17 17:00N 47°33' W 003°21'0 0.2
2017-Sep-17 16:30N 47°33' W 003°21'0 0.0
2017-Sep-17 16:00N 47°33' W 003°21'0 0.4
2017-Sep-17 15:30N 47°33' W 003°21'0 0.1
2017-Sep-17 15:00N 47°33' W 003°21'0 0.5
2017-Sep-17 14:30N 47°33' W 003°21'0 0.0
2017-Sep-17 14:00N 47°33' W 003°21'0 0.0
2017-Sep-17 13:31N 47°33' W 003°21'0 0.5
2017-Sep-17 13:00N 47°33' W 003°20'0 0.3
2017-Sep-17 12:30N 47°33' W 003°20'0 0.4
2017-Sep-17 12:00N 47°33' W 003°20'0 0.3
2017-Sep-17 11:30N 47°33' W 003°20'0 0.2
2017-Sep-17 11:01N 47°33' W 003°20'0 0.1
2017-Sep-17 10:30N 47°33' W 003°20'0 0.0
2017-Sep-17 10:00N 47°33' W 003°20'0 0.4
2017-Sep-17 09:31N 47°34' W 003°19'0 0.0
2017-Sep-17 09:00N 47°34' W 003°19'0 0.5
2017-Sep-17 08:30N 47°34' W 003°19'1 1.4
2017-Sep-17 08:00N 47°34' W 003°18'0 0.7
2017-Sep-17 07:30N 47°34' W 003°18'2 3.6
2017-Sep-17 07:00N 47°35' W 003°15'1 2.7
2017-Sep-17 06:30N 47°35' W 003°13'3 5.8
2017-Sep-17 06:00N 47°34' W 003°17'0 0.5
2017-Sep-17 05:30N 47°34' W 003°18'3 6.6
2017-Sep-17 05:00N 47°36' W 003°22'3 5.2
2017-Sep-17 04:30N 47°38' W 003°25'0 0.0
2017-Sep-17 04:00N 47°38' W 003°25'0 0.0
2017-Sep-17 03:30N 47°38' W 003°25'0 0.0
2017-Sep-17 03:00N 47°38' W 003°25'0 0.0
2017-Sep-17 02:30N 47°38' W 003°25'0 0.0
2017-Sep-17 02:01N 47°38' W 003°25'0 0.0
2017-Sep-17 01:30N 47°38' W 003°25'0 0.0
2017-Sep-17 01:00N 47°38' W 003°25'0 0.0
2017-Sep-17 00:30N 47°38' W 003°25'0 0.0
2017-Sep-17 00:00N 47°38' W 003°25'0 0.0
2017-Sep-16 23:30N 47°38' W 003°25'0 0.0
2017-Sep-16 23:00N 47°38' W 003°25'0 0.0
2017-Sep-16 22:30N 47°38' W 003°25'0 0.0
2017-Sep-16 22:00N 47°38' W 003°25'0 0.0
2017-Sep-16 21:30N 47°38' W 003°25'0 0.0
2017-Sep-16 21:00N 47°38' W 003°25'0 0.0
2017-Sep-16 20:30N 47°38' W 003°25'0 0.0
2017-Sep-16 20:00N 47°38' W 003°25'0 0.0
2017-Sep-16 19:30N 47°38' W 003°25'0 0.0
2017-Sep-16 19:00N 47°38' W 003°25'0 0.0
2017-Sep-16 18:30N 47°38' W 003°25'0 0.0
2017-Sep-16 18:00N 47°38' W 003°25'3 6.3
2017-Sep-16 17:30N 47°36' W 003°21'3 6.0
2017-Sep-16 17:00N 47°34' W 003°17'0 0.9
2017-Sep-16 16:30N 47°34' W 003°17'0 0.2
2017-Sep-16 16:00N 47°34' W 003°17'1 1.1
2017-Sep-16 15:31N 47°35' W 003°16'1 1.1
2017-Sep-16 15:00N 47°35' W 003°15'0 0.0
2017-Sep-16 14:30N 47°35' W 003°15'0 1.0
2017-Sep-16 14:00N 47°35' W 003°14'0 0.1
2017-Sep-16 13:30N 47°35' W 003°14'1 1.1
2017-Sep-16 13:00N 47°35' W 003°13'0 0.2
2017-Sep-16 12:30N 47°35' W 003°13'0 0.7
2017-Sep-16 12:00N 47°35' W 003°13'0 0.5
2017-Sep-16 11:31N 47°35' W 003°13'1 1.2
2017-Sep-16 11:00N 47°35' W 003°12'0 0.4
2017-Sep-16 10:30N 47°35' W 003°12'1 2.1
2017-Sep-16 10:00N 47°36' W 003°11'0 0.0
2017-Sep-16 09:30N 47°36' W 003°11'1 1.1
2017-Sep-16 09:00N 47°36' W 003°11'0 0.4
2017-Sep-16 08:31N 47°36' W 003°12'0 1.0
2017-Sep-16 08:00N 47°35' W 003°12'0 0.3
2017-Sep-16 07:31N 47°35' W 003°12'0 0.1
2017-Sep-16 07:00N 47°35' W 003°12'0 0.1
2017-Sep-16 06:30N 47°35' W 003°12'0 0.2
2017-Sep-16 06:01N 47°35' W 003°13'0 0.0
2017-Sep-16 05:31N 47°35' W 003°13'3 5.8
2017-Sep-16 05:00N 47°36' W 003°17'5 9.4
2017-Sep-16 04:30N 47°37' W 003°23'1 2.2
2017-Sep-16 04:00N 47°38' W 003°25'0 0.0
2017-Sep-16 03:30N 47°38' W 003°25'0 0.0
2017-Sep-16 03:00N 47°38' W 003°25'0 0.0
2017-Sep-16 02:30N 47°38' W 003°25'0 0.0
2017-Sep-16 02:00N 47°38' W 003°25'0 0.0
2017-Sep-16 01:30N 47°38' W 003°25'0 0.0
2017-Sep-16 01:00N 47°38' W 003°25'0 0.0
2017-Sep-16 00:30N 47°38' W 003°25'0 0.0
2017-Sep-16 00:00N 47°38' W 003°25'0 0.0
2017-Sep-15 23:30N 47°38' W 003°25'0 0.0
2017-Sep-15 23:00N 47°38' W 003°25'0 0.0
2017-Sep-15 22:30N 47°38' W 003°25'0 0.0
2017-Sep-15 22:00N 47°38' W 003°25'0 0.0
2017-Sep-15 21:30N 47°38' W 003°25'0 0.0
2017-Sep-15 21:00N 47°38' W 003°25'0 0.0
2017-Sep-15 20:30N 47°38' W 003°25'0 0.0
2017-Sep-15 20:00N 47°38' W 003°25'0 0.0
2017-Sep-15 19:30N 47°38' W 003°25'0 0.0
2017-Sep-15 19:00N 47°38' W 003°25'0 0.0
2017-Sep-15 18:30N 47°38' W 003°25'0 0.0
2017-Sep-15 18:00N 47°38' W 003°25'0 0.0
2017-Sep-15 17:30N 47°38' W 003°25'0 0.0
2017-Sep-15 17:00N 47°38' W 003°25'0 0.0
2017-Sep-15 16:30N 47°38' W 003°25'0 0.0
2017-Sep-15 16:00N 47°38' W 003°25'0 0.1
2017-Sep-15 15:30N 47°38' W 003°25'4 7.2
2017-Sep-15 15:00N 47°34' W 003°23'2 3.6
2017-Sep-15 14:30N 47°33' W 003°22'0 0.0
2017-Sep-15 14:00N 47°33' W 003°22'1 1.0
2017-Sep-15 13:30N 47°32' W 003°23'0 0.3
2017-Sep-15 13:00N 47°32' W 003°23'0 0.1
2017-Sep-15 12:30N 47°32' W 003°23'0 0.2
2017-Sep-15 12:01N 47°32' W 003°23'0 0.2
2017-Sep-15 11:30N 47°32' W 003°23'0 0.0
2017-Sep-15 11:00N 47°32' W 003°23'0 0.0
2017-Sep-15 10:30N 47°32' W 003°23'0 0.0
2017-Sep-15 10:00N 47°32' W 003°23'0 0.5
2017-Sep-15 09:31N 47°32' W 003°23'0 0.1
2017-Sep-15 09:00N 47°32' W 003°23'0 0.1
2017-Sep-15 08:30N 47°32' W 003°23'1 2.4
2017-Sep-15 08:00N 47°32' W 003°25'4 7.1
2017-Sep-15 07:30N 47°29' W 003°28'0 0.2
2017-Sep-15 07:00N 47°29' W 003°28'0 0.5
2017-Sep-15 06:30N 47°29' W 003°28'2 3.6
2017-Sep-15 06:00N 47°31' W 003°28'2 3.2
2017-Sep-15 05:30N 47°31' W 003°31'1 1.2
2017-Sep-15 05:00N 47°32' W 003°31'4 7.4
2017-Sep-15 04:30N 47°33' W 003°36'4 7.7
2017-Sep-15 04:00N 47°34' W 003°42'4 7.7
2017-Sep-15 03:30N 47°35' W 003°47'4 7.8
2017-Sep-15 03:00N 47°36' W 003°53'4 8.1
2017-Sep-15 02:30N 47°37' W 003°59'4 7.9
2017-Sep-15 01:59N 47°38' W 004°05'17 8.3
2017-Sep-14 23:58N 47°47' W 004°26'12 8.7
2017-Sep-14 22:33N 47°56' W 004°38'2 9.7
2017-Sep-14 22:19N 47°57' W 004°40'310.0
2017-Sep-14 22:00N 47°60' W 004°43'4 8.5
2017-Sep-14 21:30N 48°04' W 004°46'4 8.7
2017-Sep-14 21:00N 48°08' W 004°44'5 9.3
2017-Sep-14 20:30N 48°12' W 004°41'5 9.2
2017-Sep-14 20:01N 48°16' W 004°38'4 8.4
2017-Sep-14 19:30N 48°20' W 004°35'4 7.7
2017-Sep-14 19:00N 48°22' W 004°30'1 2.8
2017-Sep-14 18:30N 48°23' W 004°29'0 0.0
2017-Sep-14 18:00N 48°23' W 004°29'0 0.0
2017-Sep-14 17:30N 48°23' W 004°29'0 0.0
2017-Sep-14 17:00N 48°23' W 004°29'0 0.0
2017-Sep-14 16:30N 48°23' W 004°29'0 0.0
2017-Sep-14 16:00N 48°23' W 004°29'0 0.0
2017-Sep-14 15:30N 48°23' W 004°29'0 0.0
2017-Sep-14 15:00N 48°23' W 004°29'0 0.0
2017-Sep-14 14:30N 48°23' W 004°29'0 0.0
2017-Sep-14 14:00N 48°23' W 004°29'0 0.0
2017-Sep-14 13:30N 48°23' W 004°29'0 0.0
2017-Sep-14 13:00N 48°23' W 004°29'0 0.0
2017-Sep-14 12:30N 48°23' W 004°29'0 0.0
2017-Sep-14 12:00N 48°23' W 004°29'0 0.0
2017-Sep-14 11:30N 48°23' W 004°29'0 0.0
2017-Sep-14 11:00N 48°23' W 004°29'0 0.0
2017-Sep-14 10:30N 48°23' W 004°29'0 0.0
2017-Sep-14 10:01N 48°23' W 004°29'0 0.0
2017-Sep-14 09:30N 48°23' W 004°29'0 0.0
2017-Sep-14 09:00N 48°23' W 004°29'0 0.0
2017-Sep-14 08:30N 48°23' W 004°29'0 0.0
2017-Sep-14 08:00N 48°23' W 004°29'0 0.0
2017-Sep-14 07:30N 48°23' W 004°29'0 0.0
2017-Sep-14 07:00N 48°23' W 004°29'0 0.0
2017-Sep-14 06:30N 48°23' W 004°29'0 0.0
2017-Sep-14 06:00N 48°23' W 004°29'0 0.0
2017-Sep-14 05:30N 48°23' W 004°29'0 0.0
2017-Sep-14 05:00N 48°23' W 004°29'0 0.0
2017-Sep-14 04:30N 48°23' W 004°29'0 0.0
2017-Sep-14 04:00N 48°23' W 004°29'0 0.0
2017-Sep-14 03:30N 48°23' W 004°29'0 0.0
2017-Sep-14 03:00N 48°23' W 004°29'0 0.0
2017-Sep-14 02:30N 48°23' W 004°29'0 0.0
2017-Sep-14 02:00N 48°23' W 004°29'0 0.0
2017-Sep-14 01:30N 48°23' W 004°29'0 0.0
2017-Sep-14 01:00N 48°23' W 004°29'0 0.0
2017-Sep-14 00:30N 48°23' W 004°29'0 0.0
2017-Sep-14 00:00N 48°23' W 004°29'0 0.0
2017-Sep-13 23:30N 48°23' W 004°29'0 0.0
2017-Sep-13 23:00N 48°23' W 004°29'0 0.0
2017-Sep-13 22:30N 48°23' W 004°29'0 0.0
2017-Sep-13 22:00N 48°23' W 004°29'0 0.0
2017-Sep-13 21:30N 48°23' W 004°29'0 0.0
2017-Sep-13 21:00N 48°23' W 004°29'0 0.0
2017-Sep-13 20:30N 48°23' W 004°29'0 0.0
2017-Sep-13 20:00N 48°23' W 004°29'0 0.0
2017-Sep-13 19:30N 48°23' W 004°29'0 0.0
2017-Sep-13 19:00N 48°23' W 004°29'0 0.0
2017-Sep-13 18:31N 48°23' W 004°29'0 0.0
2017-Sep-13 18:00N 48°23' W 004°29'0 0.0
2017-Sep-13 17:30N 48°23' W 004°29'0 0.0
2017-Sep-13 17:00N 48°23' W 004°29'0 0.0
2017-Sep-13 16:30N 48°23' W 004°29'0 0.0
2017-Sep-13 16:00N 48°23' W 004°29'0 0.0
2017-Sep-13 15:30N 48°23' W 004°29'0 0.2
2017-Sep-13 15:00N 48°23' W 004°29'0 0.0
2017-Sep-13 14:30N 48°23' W 004°29'0 0.0
2017-Sep-13 14:00N 48°23' W 004°29'0 0.0
2017-Sep-13 13:30N 48°23' W 004°29'0 0.0
2017-Sep-13 13:00N 48°23' W 004°29'0 0.0
2017-Sep-13 12:30N 48°23' W 004°29'0 0.0
2017-Sep-13 12:00N 48°23' W 004°29'0 0.0
2017-Sep-13 11:30N 48°23' W 004°29'0 0.0
2017-Sep-13 11:00N 48°23' W 004°29'0 0.0
2017-Sep-13 10:30N 48°23' W 004°29'0 0.0
2017-Sep-13 10:00N 48°23' W 004°29'0 0.0
2017-Sep-13 09:30N 48°23' W 004°29'0 0.0
2017-Sep-13 09:00N 48°23' W 004°29'0 0.0
2017-Sep-13 08:30N 48°23' W 004°29'0 0.0
2017-Sep-13 08:00N 48°23' W 004°29'0 0.0
2017-Sep-13 07:30N 48°23' W 004°29'0 0.0
2017-Sep-13 07:00N 48°23' W 004°29'0 0.0
2017-Sep-13 06:30N 48°23' W 004°29'0 0.0
2017-Sep-13 06:00N 48°23' W 004°29'0 0.0
2017-Sep-13 05:30N 48°23' W 004°29'0 0.0
2017-Sep-13 05:00N 48°23' W 004°29'0 0.0
2017-Sep-13 04:30N 48°23' W 004°29'0 0.0
2017-Sep-13 04:00N 48°23' W 004°29'0 0.0
2017-Sep-13 03:30N 48°23' W 004°29'0 0.0
2017-Sep-13 03:00N 48°23' W 004°29'0 0.0
2017-Sep-13 02:30N 48°23' W 004°29'0 0.0
2017-Sep-13 02:00N 48°23' W 004°29'0 0.0
2017-Sep-13 01:30N 48°23' W 004°29'0 0.0
2017-Sep-13 01:00N 48°23' W 004°29'0 0.0
2017-Sep-13 00:30N 48°23' W 004°29'0 0.0
2017-Sep-13 00:00N 48°23' W 004°29'0 0.0
2017-Sep-12 23:30N 48°23' W 004°29'0 0.0
2017-Sep-12 23:00N 48°23' W 004°29'0 0.0
2017-Sep-12 22:30N 48°23' W 004°29'0 0.0
2017-Sep-12 22:00N 48°23' W 004°29'0 0.0
2017-Sep-12 21:30N 48°23' W 004°29'0 0.0
2017-Sep-12 21:00N 48°23' W 004°29'0 0.0
2017-Sep-12 20:31N 48°23' W 004°29'0 0.0
2017-Sep-12 20:00N 48°23' W 004°29'0 0.0
2017-Sep-12 19:30N 48°23' W 004°29'0 0.0
2017-Sep-12 19:00N 48°23' W 004°29'0 0.0
2017-Sep-12 18:30N 48°23' W 004°29'0 0.0
2017-Sep-12 18:00N 48°23' W 004°29'0 0.0
2017-Sep-12 17:30N 48°23' W 004°29'0 0.0
2017-Sep-12 17:00N 48°23' W 004°29'0 0.0
2017-Sep-12 16:30N 48°23' W 004°29'0 0.0
2017-Sep-12 16:00N 48°23' W 004°29'0 0.0
2017-Sep-12 15:30N 48°23' W 004°29'0 0.0
2017-Sep-12 15:00N 48°23' W 004°29'0 0.2
2017-Sep-12 14:30N 48°23' W 004°29'0 0.0
2017-Sep-12 14:00N 48°23' W 004°29'0 0.0
2017-Sep-12 13:30N 48°23' W 004°29'0 0.0
2017-Sep-12 13:00N 48°23' W 004°29'0 0.0
2017-Sep-12 12:30N 48°23' W 004°29'0 0.0
2017-Sep-12 12:00N 48°23' W 004°29'0 0.0
2017-Sep-12 11:30N 48°23' W 004°29'0 0.0
2017-Sep-12 11:00N 48°23' W 004°29'0 0.0
2017-Sep-12 10:30N 48°23' W 004°29'0 0.0
2017-Sep-12 10:00N 48°23' W 004°29'0 0.0
2017-Sep-12 09:30N 48°23' W 004°29'0 0.0
2017-Sep-12 09:00N 48°23' W 004°29'0 0.0
2017-Sep-12 08:30N 48°23' W 004°29'0 0.0
2017-Sep-12 08:00N 48°23' W 004°29'0 0.0
2017-Sep-12 07:30N 48°23' W 004°29'0 0.0
2017-Sep-12 07:00N 48°23' W 004°29'0 0.0
2017-Sep-12 06:30N 48°23' W 004°29'0 0.0
2017-Sep-12 06:00N 48°23' W 004°29'0 0.0
2017-Sep-12 05:30N 48°23' W 004°29'0 0.0
2017-Sep-12 05:00N 48°23' W 004°29'0 0.0
2017-Sep-12 04:30N 48°23' W 004°29'0 0.0
2017-Sep-12 04:00N 48°23' W 004°29'0 0.0
2017-Sep-12 03:30N 48°23' W 004°29'0 0.0
2017-Sep-12 03:00N 48°23' W 004°29'0 0.0
2017-Sep-12 02:30N 48°23' W 004°29'0 0.0
2017-Sep-12 02:00N 48°23' W 004°29'0 0.0
2017-Sep-12 01:30N 48°23' W 004°29'0 0.0
2017-Sep-12 01:00N 48°23' W 004°29'0 0.0
2017-Sep-12 00:30N 48°23' W 004°29'0 0.0
2017-Sep-12 00:00N 48°23' W 004°29'0 0.0
2017-Sep-11 23:30N 48°23' W 004°29'0 0.0
2017-Sep-11 23:00N 48°23' W 004°29'0 0.0
2017-Sep-11 22:30N 48°23' W 004°29'0 0.0
2017-Sep-11 22:00N 48°23' W 004°29'0 0.0
2017-Sep-11 21:30N 48°23' W 004°29'0 0.0
2017-Sep-11 21:00N 48°23' W 004°29'0 0.0
2017-Sep-11 20:30N 48°23' W 004°29'0 0.0
2017-Sep-11 20:00N 48°23' W 004°29'0 0.0
2017-Sep-11 19:30N 48°23' W 004°29'0 0.0
2017-Sep-11 19:00N 48°23' W 004°29'0 0.0
2017-Sep-11 18:30N 48°23' W 004°29'  
Track history (hours):
 
Tides and Currents Weather Stations Pressure Air Temp Water Temp Dewpoint Dewpoint Depression Visibility Wind Speed Wind Dir Waves Ship Positions

Tsm Penzer

Last reported at 2017-Sep-21 18:02 UTC. Time now 2017-Sep-24 10:42 UTC.
Position N 48°23' W 004°29'.

Length 28 m; draft 1 m.

Type: Other ship. MMSI: 228076900.

Date/timePositionNaut miles runAvg speedWind from/ knotsBaromVisibWave heightAir tempDewpointWater temp
2017-Sep-21 18:02N 48°23' W 004°29'0 0.1
2017-Sep-21 18:00N 48°23' W 004°29'0 0.0
2017-Sep-21 17:31N 48°23' W 004°29'0 0.0
2017-Sep-21 17:00N 48°23' W 004°29'0 0.0
2017-Sep-21 16:30N 48°23' W 004°29'0 0.0
2017-Sep-21 16:00N 48°23' W 004°29'0 0.0
2017-Sep-21 15:31N 48°23' W 004°29'0 0.0
2017-Sep-21 15:00N 48°23' W 004°29'0 0.0
2017-Sep-21 14:30N 48°23' W 004°29'0 0.0
2017-Sep-21 14:01N 48°23' W 004°29'0 0.0
2017-Sep-21 13:30N 48°23' W 004°29'0 0.0
2017-Sep-21 13:00N 48°23' W 004°29'0 0.0
2017-Sep-21 12:30N 48°23' W 004°29'0 0.0
2017-Sep-21 12:00N 48°23' W 004°29'0 0.0
2017-Sep-21 11:30N 48°23' W 004°29'0 0.0
2017-Sep-21 11:00N 48°23' W 004°29'0 0.0
2017-Sep-21 10:30N 48°23' W 004°29'0 0.0
2017-Sep-21 10:01N 48°23' W 004°29'0 0.0
2017-Sep-21 09:30N 48°23' W 004°29'0 0.0
2017-Sep-21 09:00N 48°23' W 004°29'0 0.0
2017-Sep-21 08:30N 48°23' W 004°29'0 0.0
2017-Sep-21 08:00N 48°23' W 004°29'0 0.0
2017-Sep-21 07:30N 48°23' W 004°29'0 0.0
2017-Sep-21 07:00N 48°23' W 004°29'0 0.0
2017-Sep-21 06:30N 48°23' W 004°29'0 0.0
2017-Sep-21 06:00N 48°23' W 004°29'0 0.0
2017-Sep-21 05:30N 48°23' W 004°29'0 0.0
2017-Sep-21 05:00N 48°23' W 004°29'0 0.0
2017-Sep-21 04:31N 48°23' W 004°29'0 0.0
2017-Sep-21 04:00N 48°23' W 004°29'0 0.0
2017-Sep-21 03:30N 48°23' W 004°29'0 0.0
2017-Sep-21 03:01N 48°23' W 004°29'0 0.0
2017-Sep-21 02:30N 48°23' W 004°29'0 0.0
2017-Sep-21 02:00N 48°23' W 004°29'0 0.0
2017-Sep-21 01:30N 48°23' W 004°29'0 0.0
2017-Sep-21 01:01N 48°23' W 004°29'0 0.0
2017-Sep-21 00:30N 48°23' W 004°29'0 0.0
2017-Sep-21 00:00N 48°23' W 004°29'0 0.0
2017-Sep-20 23:30N 48°23' W 004°29'0 0.0
2017-Sep-20 23:01N 48°23' W 004°29'0 0.0
2017-Sep-20 22:30N 48°23' W 004°29'0 0.0
2017-Sep-20 22:00N 48°23' W 004°29'0 0.0
2017-Sep-20 21:30N 48°23' W 004°29'0 0.0
2017-Sep-20 21:00N 48°23' W 004°29'4 7.2
2017-Sep-20 20:30N 48°21' W 004°33'510.5
2017-Sep-20 20:01N 48°17' W 004°38'611.0
2017-Sep-20 19:30N 48°12' W 004°41'510.7
2017-Sep-20 19:00N 48°07' W 004°44'4 8.8
2017-Sep-20 18:30N 48°02' W 004°46'5 9.7
2017-Sep-20 18:00N 47°59' W 004°41'510.0
2017-Sep-20 17:29N 47°55' W 004°36'510.1
2017-Sep-20 17:00N 47°52' W 004°30'610.0
2017-Sep-20 16:26N 47°48' W 004°24'4 9.8
2017-Sep-20 16:00N 47°45' W 004°19'610.3
2017-Sep-20 15:28N 47°45' W 004°11'510.6
2017-Sep-20 15:00N 47°45' W 004°04'1110.6
2017-Sep-20 14:00N 47°44' W 003°48'511.1
2017-Sep-20 13:30N 47°43' W 003°40'510.8
2017-Sep-20 13:01N 47°42' W 003°32'510.6
2017-Sep-20 12:30N 47°41' W 003°24'3 5.4
2017-Sep-20 12:00N 47°44' W 003°22'3 6.6
2017-Sep-20 11:30N 47°41' W 003°23'611.3
2017-Sep-20 11:00N 47°35' W 003°26'510.8
2017-Sep-20 10:30N 47°31' W 003°30'2 5.0
2017-Sep-20 10:01N 47°29' W 003°33'2 4.5
2017-Sep-20 09:30N 47°31' W 003°30'3 5.3
2017-Sep-20 09:01N 47°33' W 003°28'3 5.2
2017-Sep-20 08:31N 47°35' W 003°26'3 5.7
2017-Sep-20 08:00N 47°37' W 003°24'3 5.2
2017-Sep-20 07:30N 47°40' W 003°23'3 6.0
2017-Sep-20 07:00N 47°43' W 003°22'1 1.9
2017-Sep-20 06:30N 47°44' W 003°22'0 0.0
2017-Sep-20 06:00N 47°44' W 003°22'0 0.0
2017-Sep-20 05:30N 47°44' W 003°22'0 0.0
2017-Sep-20 05:00N 47°44' W 003°22'2 4.6
2017-Sep-20 04:30N 47°42' W 003°23'510.4
2017-Sep-20 04:00N 47°41' W 003°31'510.7
2017-Sep-20 03:30N 47°42' W 003°38'610.7
2017-Sep-20 02:59N 47°43' W 003°47'510.8
2017-Sep-20 02:30N 47°44' W 003°54'611.1
2017-Sep-20 02:00N 47°45' W 004°02'610.9
2017-Sep-20 01:28N 47°45' W 004°11'510.8
2017-Sep-20 01:00N 47°45' W 004°18'610.2
2017-Sep-20 00:28N 47°47' W 004°26'510.4
2017-Sep-19 23:59N 47°51' W 004°31'510.2
2017-Sep-19 23:30N 47°54' W 004°36'5 9.8
2017-Sep-19 23:00N 47°58' W 004°41'4 8.6
2017-Sep-19 22:31N 48°01' W 004°45'3 6.4
2017-Sep-19 22:01N 48°04' W 004°45'510.5
2017-Sep-19 21:30N 48°09' W 004°43'510.7
2017-Sep-19 21:00N 48°14' W 004°39'510.2
2017-Sep-19 20:30N 48°19' W 004°36'510.8
2017-Sep-19 20:00N 48°22' W 004°29'1 2.0
2017-Sep-19 19:30N 48°23' W 004°29'0 0.0
2017-Sep-19 19:00N 48°23' W 004°29'0 0.0
2017-Sep-19 18:30N 48°23' W 004°29'0 0.0
2017-Sep-19 18:00N 48°23' W 004°29'0 0.0
2017-Sep-19 17:30N 48°23' W 004°29'0 0.0
2017-Sep-19 17:00N 48°23' W 004°29'0 0.0
2017-Sep-19 16:30N 48°23' W 004°29'0 0.0
2017-Sep-19 16:01N 48°23' W 004°29'0 0.0
2017-Sep-19 15:30N 48°23' W 004°29'0 0.0
2017-Sep-19 15:00N 48°23' W 004°29'0 0.0
2017-Sep-19 14:30N 48°23' W 004°29'0 0.0
2017-Sep-19 14:00N 48°23' W 004°29'0 0.0
2017-Sep-19 13:30N 48°23' W 004°29'0 0.0
2017-Sep-19 13:00N 48°23' W 004°29'0 0.0
2017-Sep-19 12:30N 48°23' W 004°29'0 0.0
2017-Sep-19 12:00N 48°23' W 004°29'0 0.0
2017-Sep-19 11:31N 48°23' W 004°29'0 0.0
2017-Sep-19 11:01N 48°23' W 004°29'0 0.0
2017-Sep-19 10:31N 48°23' W 004°29'0 0.0
2017-Sep-19 10:00N 48°23' W 004°29'0 0.0
2017-Sep-19 09:30N 48°23' W 004°29'0 0.0
2017-Sep-19 09:01N 48°23' W 004°29'0 0.0
2017-Sep-19 08:30N 48°23' W 004°29'0 0.0
2017-Sep-19 08:01N 48°23' W 004°29'0 0.0
2017-Sep-19 07:30N 48°23' W 004°29'0 0.0
2017-Sep-19 07:00N 48°23' W 004°29'0 0.0
2017-Sep-19 06:30N 48°23' W 004°29'0 0.0
2017-Sep-19 06:00N 48°23' W 004°29'0 0.0
2017-Sep-19 05:30N 48°23' W 004°29'0 0.0
2017-Sep-19 05:01N 48°23' W 004°29'0 0.0
2017-Sep-19 04:30N 48°23' W 004°29'0 0.0
2017-Sep-19 04:00N 48°23' W 004°29'0 0.0
2017-Sep-19 03:30N 48°23' W 004°29'0 0.0
2017-Sep-19 03:01N 48°23' W 004°29'0 0.0
2017-Sep-19 02:30N 48°23' W 004°29'0 0.0
2017-Sep-19 02:01N 48°23' W 004°29'0 0.0
2017-Sep-19 01:30N 48°23' W 004°29'0 0.0
2017-Sep-19 01:00N 48°23' W 004°29'0 0.4
2017-Sep-19 00:30N 48°23' W 004°29'612.5
2017-Sep-19 00:00N 48°19' W 004°36'611.6
2017-Sep-18 23:31N 48°13' W 004°40'611.6
2017-Sep-18 23:00N 48°08' W 004°43'612.4
2017-Sep-18 22:30N 48°02' W 004°46'712.8
2017-Sep-18 22:00N 47°57' W 004°39'1211.4
2017-Sep-18 20:58N 47°49' W 004°28'1111.2
2017-Sep-18 19:58N 47°42' W 004°14'1411.3
2017-Sep-18 18:46N 47°36' W 003°56'311.2
2017-Sep-18 18:30N 47°35' W 003°52'511.2
2017-Sep-18 18:00N 47°33' W 003°44'511.0
2017-Sep-18 17:30N 47°31' W 003°36'4 9.0
2017-Sep-18 17:00N 47°30' W 003°30'2 3.4
2017-Sep-18 16:30N 47°29' W 003°28'1 2.2
2017-Sep-18 16:00N 47°28' W 003°28'1 1.4
2017-Sep-18 15:30N 47°28' W 003°27'0 0.3
2017-Sep-18 15:00N 47°28' W 003°27'1 1.9
2017-Sep-18 14:30N 47°29' W 003°27'2 3.2
2017-Sep-18 14:01N 47°30' W 003°26'1 1.5
2017-Sep-18 13:30N 47°31' W 003°27'0 0.3
2017-Sep-18 13:00N 47°31' W 003°28'0 0.4
2017-Sep-18 12:31N 47°31' W 003°28'0 1.0
2017-Sep-18 12:01N 47°31' W 003°27'0 0.0
2017-Sep-18 11:30N 47°31' W 003°27'1 1.1
2017-Sep-18 11:00N 47°31' W 003°26'0 0.1
2017-Sep-18 10:30N 47°31' W 003°26'0 0.0
2017-Sep-18 10:00N 47°31' W 003°26'1 1.2
2017-Sep-18 09:30N 47°31' W 003°25'0 0.4
2017-Sep-18 09:00N 47°31' W 003°25'1 1.2
2017-Sep-18 08:30N 47°31' W 003°24'1 1.4
2017-Sep-18 08:01N 47°32' W 003°23'0 0.1
2017-Sep-18 07:30N 47°32' W 003°23'1 1.9
2017-Sep-18 07:00N 47°33' W 003°23'0 0.1
2017-Sep-18 06:30N 47°33' W 003°22'0 0.1
2017-Sep-18 06:00N 47°33' W 003°22'0 0.2
2017-Sep-18 05:30N 47°33' W 003°22'2 4.5
2017-Sep-18 05:00N 47°35' W 003°23'3 6.3
2017-Sep-18 04:30N 47°38' W 003°25'0 0.0
2017-Sep-18 04:00N 47°38' W 003°25'0 0.0
2017-Sep-18 03:30N 47°38' W 003°25'0 0.0
2017-Sep-18 03:00N 47°38' W 003°25'0 0.0
2017-Sep-18 02:30N 47°38' W 003°25'0 0.0
2017-Sep-18 02:00N 47°38' W 003°25'0 0.0
2017-Sep-18 01:30N 47°38' W 003°25'0 0.0
2017-Sep-18 01:00N 47°38' W 003°25'0 0.0
2017-Sep-18 00:30N 47°38' W 003°25'0 0.0
2017-Sep-18 00:00N 47°38' W 003°25'0 0.0
2017-Sep-17 23:30N 47°38' W 003°25'0 0.0
2017-Sep-17 23:00N 47°38' W 003°25'0 0.0
2017-Sep-17 22:30N 47°38' W 003°25'0 0.0
2017-Sep-17 22:00N 47°38' W 003°25'0 0.0
2017-Sep-17 21:30N 47°38' W 003°25'0 0.0
2017-Sep-17 21:00N 47°38' W 003°25'0 0.0
2017-Sep-17 20:30N 47°38' W 003°25'0 0.0
2017-Sep-17 20:00N 47°38' W 003°25'0 0.0
2017-Sep-17 19:30N 47°38' W 003°25'0 0.0
2017-Sep-17 19:00N 47°38' W 003°25'0 0.0
2017-Sep-17 18:30N 47°38' W 003°25'0 0.0
2017-Sep-17 18:00N 47°38' W 003°25'3 5.6
2017-Sep-17 17:30N 47°35' W 003°23'3 5.3
2017-Sep-17 17:00N 47°33' W 003°21'0 0.2
2017-Sep-17 16:30N 47°33' W 003°21'0 0.0
2017-Sep-17 16:00N 47°33' W 003°21'0 0.4
2017-Sep-17 15:30N 47°33' W 003°21'0 0.1
2017-Sep-17 15:00N 47°33' W 003°21'0 0.5
2017-Sep-17 14:30N 47°33' W 003°21'0 0.0
2017-Sep-17 14:00N 47°33' W 003°21'0 0.0
2017-Sep-17 13:31N 47°33' W 003°21'0 0.5
2017-Sep-17 13:00N 47°33' W 003°20'0 0.3
2017-Sep-17 12:30N 47°33' W 003°20'0 0.4
2017-Sep-17 12:00N 47°33' W 003°20'0 0.3
2017-Sep-17 11:30N 47°33' W 003°20'0 0.2
2017-Sep-17 11:01N 47°33' W 003°20'0 0.1
2017-Sep-17 10:30N 47°33' W 003°20'0 0.0
2017-Sep-17 10:00N 47°33' W 003°20'0 0.4
2017-Sep-17 09:31N 47°34' W 003°19'0 0.0
2017-Sep-17 09:00N 47°34' W 003°19'0 0.5
2017-Sep-17 08:30N 47°34' W 003°19'1 1.4
2017-Sep-17 08:00N 47°34' W 003°18'0 0.7
2017-Sep-17 07:30N 47°34' W 003°18'2 3.6
2017-Sep-17 07:00N 47°35' W 003°15'1 2.7
2017-Sep-17 06:30N 47°35' W 003°13'3 5.8
2017-Sep-17 06:00N 47°34' W 003°17'0 0.5
2017-Sep-17 05:30N 47°34' W 003°18'3 6.6
2017-Sep-17 05:00N 47°36' W 003°22'3 5.2
2017-Sep-17 04:30N 47°38' W 003°25'0 0.0
2017-Sep-17 04:00N 47°38' W 003°25'0 0.0
2017-Sep-17 03:30N 47°38' W 003°25'0 0.0
2017-Sep-17 03:00N 47°38' W 003°25'0 0.0
2017-Sep-17 02:30N 47°38' W 003°25'0 0.0
2017-Sep-17 02:01N 47°38' W 003°25'0 0.0
2017-Sep-17 01:30N 47°38' W 003°25'0 0.0
2017-Sep-17 01:00N 47°38' W 003°25'0 0.0
2017-Sep-17 00:30N 47°38' W 003°25'0 0.0
2017-Sep-17 00:00N 47°38' W 003°25'0 0.0
2017-Sep-16 23:30N 47°38' W 003°25'0 0.0
2017-Sep-16 23:00N 47°38' W 003°25'0 0.0
2017-Sep-16 22:30N 47°38' W 003°25'0 0.0
2017-Sep-16 22:00N 47°38' W 003°25'0 0.0
2017-Sep-16 21:30N 47°38' W 003°25'0 0.0
2017-Sep-16 21:00N 47°38' W 003°25'0 0.0
2017-Sep-16 20:30N 47°38' W 003°25'0 0.0
2017-Sep-16 20:00N 47°38' W 003°25'0 0.0
2017-Sep-16 19:30N 47°38' W 003°25'0 0.0
2017-Sep-16 19:00N 47°38' W 003°25'0 0.0
2017-Sep-16 18:30N 47°38' W 003°25'0 0.0
2017-Sep-16 18:00N 47°38' W 003°25'3 6.3
2017-Sep-16 17:30N 47°36' W 003°21'3 6.0
2017-Sep-16 17:00N 47°34' W 003°17'0 0.9
2017-Sep-16 16:30N 47°34' W 003°17'0 0.2
2017-Sep-16 16:00N 47°34' W 003°17'1 1.1
2017-Sep-16 15:31N 47°35' W 003°16'1 1.1
2017-Sep-16 15:00N 47°35' W 003°15'0 0.0
2017-Sep-16 14:30N 47°35' W 003°15'0 1.0
2017-Sep-16 14:00N 47°35' W 003°14'0 0.1
2017-Sep-16 13:30N 47°35' W 003°14'1 1.1
2017-Sep-16 13:00N 47°35' W 003°13'0 0.2
2017-Sep-16 12:30N 47°35' W 003°13'0 0.7
2017-Sep-16 12:00N 47°35' W 003°13'0 0.5
2017-Sep-16 11:31N 47°35' W 003°13'1 1.2
2017-Sep-16 11:00N 47°35' W 003°12'0 0.4
2017-Sep-16 10:30N 47°35' W 003°12'1 2.1
2017-Sep-16 10:00N 47°36' W 003°11'0 0.0
2017-Sep-16 09:30N 47°36' W 003°11'1 1.1
2017-Sep-16 09:00N 47°36' W 003°11'0 0.4
2017-Sep-16 08:31N 47°36' W 003°12'0 1.0
2017-Sep-16 08:00N 47°35' W 003°12'0 0.3
2017-Sep-16 07:31N 47°35' W 003°12'0 0.1
2017-Sep-16 07:00N 47°35' W 003°12'0 0.1
2017-Sep-16 06:30N 47°35' W 003°12'0 0.2
2017-Sep-16 06:01N 47°35' W 003°13'0 0.0
2017-Sep-16 05:31N 47°35' W 003°13'3 5.8
2017-Sep-16 05:00N 47°36' W 003°17'5 9.4
2017-Sep-16 04:30N 47°37' W 003°23'1 2.2
2017-Sep-16 04:00N 47°38' W 003°25'0 0.0
2017-Sep-16 03:30N 47°38' W 003°25'0 0.0
2017-Sep-16 03:00N 47°38' W 003°25'0 0.0
2017-Sep-16 02:30N 47°38' W 003°25'0 0.0
2017-Sep-16 02:00N 47°38' W 003°25'0 0.0
2017-Sep-16 01:30N 47°38' W 003°25'0 0.0
2017-Sep-16 01:00N 47°38' W 003°25'0 0.0
2017-Sep-16 00:30N 47°38' W 003°25'0 0.0
2017-Sep-16 00:00N 47°38' W 003°25'0 0.0
2017-Sep-15 23:30N 47°38' W 003°25'0 0.0
2017-Sep-15 23:00N 47°38' W 003°25'0 0.0
2017-Sep-15 22:30N 47°38' W 003°25'0 0.0
2017-Sep-15 22:00N 47°38' W 003°25'0 0.0
2017-Sep-15 21:30N 47°38' W 003°25'0 0.0
2017-Sep-15 21:00N 47°38' W 003°25'0 0.0
2017-Sep-15 20:30N 47°38' W 003°25'0 0.0
2017-Sep-15 20:00N 47°38' W 003°25'0 0.0
2017-Sep-15 19:30N 47°38' W 003°25'0 0.0
2017-Sep-15 19:00N 47°38' W 003°25'0 0.0
2017-Sep-15 18:30N 47°38' W 003°25'0 0.0
2017-Sep-15 18:00N 47°38' W 003°25'0 0.0
2017-Sep-15 17:30N 47°38' W 003°25'0 0.0
2017-Sep-15 17:00N 47°38' W 003°25'0 0.0
2017-Sep-15 16:30N 47°38' W 003°25'0 0.0
2017-Sep-15 16:00N 47°38' W 003°25'0 0.1
2017-Sep-15 15:30N 47°38' W 003°25'4 7.2
2017-Sep-15 15:00N 47°34' W 003°23'2 3.6
2017-Sep-15 14:30N 47°33' W 003°22'0 0.0
2017-Sep-15 14:00N 47°33' W 003°22'1 1.0
2017-Sep-15 13:30N 47°32' W 003°23'0 0.3
2017-Sep-15 13:00N 47°32' W 003°23'0 0.1
2017-Sep-15 12:30N 47°32' W 003°23'0 0.2
2017-Sep-15 12:01N 47°32' W 003°23'0 0.2
2017-Sep-15 11:30N 47°32' W 003°23'0 0.0
2017-Sep-15 11:00N 47°32' W 003°23'0 0.0
2017-Sep-15 10:30N 47°32' W 003°23'0 0.0
2017-Sep-15 10:00N 47°32' W 003°23'0 0.5
2017-Sep-15 09:31N 47°32' W 003°23'0 0.1
2017-Sep-15 09:00N 47°32' W 003°23'0 0.1
2017-Sep-15 08:30N 47°32' W 003°23'1 2.4
2017-Sep-15 08:00N 47°32' W 003°25'4 7.1
2017-Sep-15 07:30N 47°29' W 003°28'0 0.2
2017-Sep-15 07:00N 47°29' W 003°28'0 0.5
2017-Sep-15 06:30N 47°29' W 003°28'2 3.6
2017-Sep-15 06:00N 47°31' W 003°28'2 3.2
2017-Sep-15 05:30N 47°31' W 003°31'1 1.2
2017-Sep-15 05:00N 47°32' W 003°31'4 7.4
2017-Sep-15 04:30N 47°33' W 003°36'4 7.7
2017-Sep-15 04:00N 47°34' W 003°42'4 7.7
2017-Sep-15 03:30N 47°35' W 003°47'4 7.8
2017-Sep-15 03:00N 47°36' W 003°53'4 8.1
2017-Sep-15 02:30N 47°37' W 003°59'4 7.9
2017-Sep-15 01:59N 47°38' W 004°05'17 8.3
2017-Sep-14 23:58N 47°47' W 004°26'12 8.7
2017-Sep-14 22:33N 47°56' W 004°38'2 9.7
2017-Sep-14 22:19N 47°57' W 004°40'310.0
2017-Sep-14 22:00N 47°60' W 004°43'4 8.5
2017-Sep-14 21:30N 48°04' W 004°46'4 8.7
2017-Sep-14 21:00N 48°08' W 004°44'5 9.3
2017-Sep-14 20:30N 48°12' W 004°41'5 9.2
2017-Sep-14 20:01N 48°16' W 004°38'4 8.4
2017-Sep-14 19:30N 48°20' W 004°35'4 7.7
2017-Sep-14 19:00N 48°22' W 004°30'1 2.8
2017-Sep-14 18:30N 48°23' W 004°29'0 0.0
2017-Sep-14 18:00N 48°23' W 004°29'0 0.0
2017-Sep-14 17:30N 48°23' W 004°29'0 0.0
2017-Sep-14 17:00N 48°23' W 004°29'0 0.0
2017-Sep-14 16:30N 48°23' W 004°29'0 0.0
2017-Sep-14 16:00N 48°23' W 004°29'0 0.0
2017-Sep-14 15:30N 48°23' W 004°29'0 0.0
2017-Sep-14 15:00N 48°23' W 004°29'0 0.0
2017-Sep-14 14:30N 48°23' W 004°29'0 0.0
2017-Sep-14 14:00N 48°23' W 004°29'0 0.0
2017-Sep-14 13:30N 48°23' W 004°29'0 0.0
2017-Sep-14 13:00N 48°23' W 004°29'0 0.0
2017-Sep-14 12:30N 48°23' W 004°29'0 0.0
2017-Sep-14 12:00N 48°23' W 004°29'0 0.0
2017-Sep-14 11:30N 48°23' W 004°29'0 0.0
2017-Sep-14 11:00N 48°23' W 004°29'0 0.0
2017-Sep-14 10:30N 48°23' W 004°29'0 0.0
2017-Sep-14 10:01N 48°23' W 004°29'0 0.0
2017-Sep-14 09:30N 48°23' W 004°29'0 0.0
2017-Sep-14 09:00N 48°23' W 004°29'0 0.0
2017-Sep-14 08:30N 48°23' W 004°29'0 0.0
2017-Sep-14 08:00N 48°23' W 004°29'0 0.0
2017-Sep-14 07:30N 48°23' W 004°29'0 0.0
2017-Sep-14 07:00N 48°23' W 004°29'0 0.0
2017-Sep-14 06:30N 48°23' W 004°29'0 0.0
2017-Sep-14 06:00N 48°23' W 004°29'0 0.0
2017-Sep-14 05:30N 48°23' W 004°29'0 0.0
2017-Sep-14 05:00N 48°23' W 004°29'0 0.0
2017-Sep-14 04:30N 48°23' W 004°29'0 0.0
2017-Sep-14 04:00N 48°23' W 004°29'0 0.0
2017-Sep-14 03:30N 48°23' W 004°29'0 0.0
2017-Sep-14 03:00N 48°23' W 004°29'0 0.0
2017-Sep-14 02:30N 48°23' W 004°29'0 0.0
2017-Sep-14 02:00N 48°23' W 004°29'0 0.0
2017-Sep-14 01:30N 48°23' W 004°29'0 0.0
2017-Sep-14 01:00N 48°23' W 004°29'0 0.0
2017-Sep-14 00:30N 48°23' W 004°29'0 0.0
2017-Sep-14 00:00N 48°23' W 004°29'0 0.0
2017-Sep-13 23:30N 48°23' W 004°29'0 0.0
2017-Sep-13 23:00N 48°23' W 004°29'0 0.0
2017-Sep-13 22:30N 48°23' W 004°29'0 0.0
2017-Sep-13 22:00N 48°23' W 004°29'0 0.0
2017-Sep-13 21:30N 48°23' W 004°29'0 0.0
2017-Sep-13 21:00N 48°23' W 004°29'0 0.0
2017-Sep-13 20:30N 48°23' W 004°29'0 0.0
2017-Sep-13 20:00N 48°23' W 004°29'0 0.0
2017-Sep-13 19:30N 48°23' W 004°29'0 0.0
2017-Sep-13 19:00N 48°23' W 004°29'0 0.0
2017-Sep-13 18:31N 48°23' W 004°29'0 0.0
2017-Sep-13 18:00N 48°23' W 004°29'0 0.0
2017-Sep-13 17:30N 48°23' W 004°29'0 0.0
2017-Sep-13 17:00N 48°23' W 004°29'0 0.0
2017-Sep-13 16:30N 48°23' W 004°29'0 0.0
2017-Sep-13 16:00N 48°23' W 004°29'0 0.0
2017-Sep-13 15:30N 48°23' W 004°29'0 0.2
2017-Sep-13 15:00N 48°23' W 004°29'0 0.0
2017-Sep-13 14:30N 48°23' W 004°29'0 0.0
2017-Sep-13 14:00N 48°23' W 004°29'0 0.0
2017-Sep-13 13:30N 48°23' W 004°29'0 0.0
2017-Sep-13 13:00N 48°23' W 004°29'0 0.0
2017-Sep-13 12:30N 48°23' W 004°29'0 0.0
2017-Sep-13 12:00N 48°23' W 004°29'0 0.0
2017-Sep-13 11:30N 48°23' W 004°29'0 0.0
2017-Sep-13 11:00N 48°23' W 004°29'0 0.0
2017-Sep-13 10:30N 48°23' W 004°29'0 0.0
2017-Sep-13 10:00N 48°23' W 004°29'0 0.0
2017-Sep-13 09:30N 48°23' W 004°29'0 0.0
2017-Sep-13 09:00N 48°23' W 004°29'0 0.0
2017-Sep-13 08:30N 48°23' W 004°29'0 0.0
2017-Sep-13 08:00N 48°23' W 004°29'0 0.0
2017-Sep-13 07:30N 48°23' W 004°29'0 0.0
2017-Sep-13 07:00N 48°23' W 004°29'0 0.0
2017-Sep-13 06:30N 48°23' W 004°29'0 0.0
2017-Sep-13 06:00N 48°23' W 004°29'0 0.0
2017-Sep-13 05:30N 48°23' W 004°29'0 0.0
2017-Sep-13 05:00N 48°23' W 004°29'0 0.0
2017-Sep-13 04:30N 48°23' W 004°29'0 0.0
2017-Sep-13 04:00N 48°23' W 004°29'0 0.0
2017-Sep-13 03:30N 48°23' W 004°29'0 0.0
2017-Sep-13 03:00N 48°23' W 004°29'0 0.0
2017-Sep-13 02:30N 48°23' W 004°29'0 0.0
2017-Sep-13 02:00N 48°23' W 004°29'0 0.0
2017-Sep-13 01:30N 48°23' W 004°29'0 0.0
2017-Sep-13 01:00N 48°23' W 004°29'0 0.0
2017-Sep-13 00:30N 48°23' W 004°29'0 0.0
2017-Sep-13 00:00N 48°23' W 004°29'0 0.0
2017-Sep-12 23:30N 48°23' W 004°29'0 0.0
2017-Sep-12 23:00N 48°23' W 004°29'0 0.0
2017-Sep-12 22:30N 48°23' W 004°29'0 0.0
2017-Sep-12 22:00N 48°23' W 004°29'0 0.0
2017-Sep-12 21:30N 48°23' W 004°29'0 0.0
2017-Sep-12 21:00N 48°23' W 004°29'0 0.0
2017-Sep-12 20:31N 48°23' W 004°29'0 0.0
2017-Sep-12 20:00N 48°23' W 004°29'0 0.0
2017-Sep-12 19:30N 48°23' W 004°29'0 0.0
2017-Sep-12 19:00N 48°23' W 004°29'0 0.0
2017-Sep-12 18:30N 48°23' W 004°29'0 0.0
2017-Sep-12 18:00N 48°23' W 004°29'0 0.0
2017-Sep-12 17:30N 48°23' W 004°29'0 0.0
2017-Sep-12 17:00N 48°23' W 004°29'0 0.0
2017-Sep-12 16:30N 48°23' W 004°29'0 0.0
2017-Sep-12 16:00N 48°23' W 004°29'0 0.0
2017-Sep-12 15:30N 48°23' W 004°29'0 0.0
2017-Sep-12 15:00N 48°23' W 004°29'0 0.2
2017-Sep-12 14:30N 48°23' W 004°29'0 0.0
2017-Sep-12 14:00N 48°23' W 004°29'0 0.0
2017-Sep-12 13:30N 48°23' W 004°29'0 0.0
2017-Sep-12 13:00N 48°23' W 004°29'0 0.0
2017-Sep-12 12:30N 48°23' W 004°29'0 0.0
2017-Sep-12 12:00N 48°23' W 004°29'0 0.0
2017-Sep-12 11:30N 48°23' W 004°29'0 0.0
2017-Sep-12 11:00N 48°23' W 004°29'0 0.0
2017-Sep-12 10:30N 48°23' W 004°29'0 0.0
2017-Sep-12 10:00N 48°23' W 004°29'0 0.0
2017-Sep-12 09:30N 48°23' W 004°29'0 0.0
2017-Sep-12 09:00N 48°23' W 004°29'0 0.0
2017-Sep-12 08:30N 48°23' W 004°29'0 0.0
2017-Sep-12 08:00N 48°23' W 004°29'0 0.0
2017-Sep-12 07:30N 48°23' W 004°29'0 0.0
2017-Sep-12 07:00N 48°23' W 004°29'0 0.0
2017-Sep-12 06:30N 48°23' W 004°29'0 0.0
2017-Sep-12 06:00N 48°23' W 004°29'0 0.0
2017-Sep-12 05:30N 48°23' W 004°29'0 0.0
2017-Sep-12 05:00N 48°23' W 004°29'0 0.0
2017-Sep-12 04:30N 48°23' W 004°29'0 0.0
2017-Sep-12 04:00N 48°23' W 004°29'0 0.0
2017-Sep-12 03:30N 48°23' W 004°29'0 0.0
2017-Sep-12 03:00N 48°23' W 004°29'0 0.0
2017-Sep-12 02:30N 48°23' W 004°29'0 0.0
2017-Sep-12 02:00N 48°23' W 004°29'0 0.0
2017-Sep-12 01:30N 48°23' W 004°29'0 0.0
2017-Sep-12 01:00N 48°23' W 004°29'0 0.0
2017-Sep-12 00:30N 48°23' W 004°29'0 0.0
2017-Sep-12 00:00N 48°23' W 004°29'0 0.0
2017-Sep-11 23:30N 48°23' W 004°29'0 0.0
2017-Sep-11 23:00N 48°23' W 004°29'0 0.0
2017-Sep-11 22:30N 48°23' W 004°29'0 0.0
2017-Sep-11 22:00N 48°23' W 004°29'0 0.0
2017-Sep-11 21:30N 48°23' W 004°29'0 0.0
2017-Sep-11 21:00N 48°23' W 004°29'0 0.0
2017-Sep-11 20:30N 48°23' W 004°29'0 0.0
2017-Sep-11 20:00N 48°23' W 004°29'0 0.0
2017-Sep-11 19:30N 48°23' W 004°29'0 0.0
2017-Sep-11 19:00N 48°23' W 004°29'0 0.0
2017-Sep-11 18:30N 48°23' W 004°29'  

Dump ship's entire track history